الصفحة الرئيسية
METAR-TAF:

METAR-TAF

مطار :

Phoenix Goodyear Airport

Goodyear, أريزونا, الولايات المتحدة

دائرة عرض: 33-25N, خط طول: 112-23W, ارتفاع: 295 متر

مراقبة الطقس الحالي

تاريخ ووقت الإصدار 52 دقيقة قبل الساعة 01:47UTC
رياح هادئة
درجة الحرارة 16°درجة مئوية
الرطوبة 59%
ضغط 1020 hPa
الرؤية: 16.1 كم
غيوم متفرقة على ارتفاع 5000 قدم
غيوم مفككة على ارتفاع 20000 قدم

METAR: KGYR 230147Z 00000KT 10SM SCT050 BKN200 16/08 A3011

زمن: 19:39 (02:39 UTC)


TAF: مفقودة

أرصاد الطقس والتوقعات من أكثر من 4000 مطار (تقارير الطقس للمطار METAR والتنبؤ بالطقس بالمطارTAF).

المحطات المتاحة هي النقط الصفراء والحمراء على الخريطة.

حرك المؤشر فوق النقطة لمعرفة اسم المحطة.

ثم انقر لمعرفة أرصاد وتوقعات الطقس.

لتغيير الخارطة: اضغط على الأزرار الخضراء مع رمز الصليب الأسود للتكبير. على الزر الأخضر مع شرطة للتصغير، أو على الأسهم الخضراء للخرائط المجاورة.


METAR-TAF: